sensor_id;sensor_type;location;lat;lon;timestamp;P1;durP1;ratioP1;P2;durP2;ratioP2
32152;SDS011;18656;50.580;11.392;2024-03-22T00:01:03;5.40;;;4.63;;
32152;SDS011;18656;50.580;11.392;2024-03-22T00:03:29;8.48;;;4.88;;
32152;SDS011;18656;50.580;11.392;2024-03-22T00:05:57;5.25;;;3.78;;
32152;SDS011;18656;50.580;11.392;2024-03-22T00:08:23;5.85;;;4.68;;
32152;SDS011;18656;50.580;11.392;2024-03-22T00:10:50;5.35;;;3.97;;
32152;SDS011;18656;50.580;11.392;2024-03-22T00:13:16;4.05;;;3.70;;
32152;SDS011;18656;50.580;11.392;2024-03-22T00:15:42;9.07;;;4.57;;
32152;SDS011;18656;50.580;11.392;2024-03-22T00:18:09;6.28;;;4.15;;
32152;SDS011;18656;50.580;11.392;2024-03-22T00:20:36;6.57;;;4.97;;
32152;SDS011;18656;50.580;11.392;2024-03-22T00:23:02;4.65;;;4.13;;
32152;SDS011;18656;50.580;11.392;2024-03-22T00:25:29;8.55;;;5.00;;
32152;SDS011;18656;50.580;11.392;2024-03-22T00:27:55;5.95;;;4.05;;
32152;SDS011;18656;50.580;11.392;2024-03-22T00:30:21;7.10;;;4.38;;
32152;SDS011;18656;50.580;11.392;2024-03-22T00:32:47;9.65;;;4.78;;
32152;SDS011;18656;50.580;11.392;2024-03-22T00:35:14;5.28;;;4.00;;
32152;SDS011;18656;50.580;11.392;2024-03-22T00:37:40;4.53;;;4.00;;
32152;SDS011;18656;50.580;11.392;2024-03-22T00:40:06;6.00;;;4.70;;
32152;SDS011;18656;50.580;11.392;2024-03-22T00:42:33;5.25;;;3.90;;
32152;SDS011;18656;50.580;11.392;2024-03-22T00:44:59;8.25;;;4.60;;
32152;SDS011;18656;50.580;11.392;2024-03-22T00:47:25;5.88;;;4.28;;
32152;SDS011;18656;50.580;11.392;2024-03-22T00:49:51;4.30;;;3.92;;
32152;SDS011;18656;50.580;11.392;2024-03-22T00:52:17;7.22;;;4.15;;
32152;SDS011;18656;50.580;11.392;2024-03-22T00:54:44;7.25;;;5.20;;
32152;SDS011;18656;50.580;11.392;2024-03-22T00:57:10;6.75;;;5.20;;
32152;SDS011;18656;50.580;11.392;2024-03-22T00:59:36;6.15;;;4.75;;
32152;SDS011;18656;50.580;11.392;2024-03-22T01:02:03;9.30;;;5.80;;
32152;SDS011;18656;50.580;11.392;2024-03-22T01:04:29;6.32;;;5.13;;
32152;SDS011;18656;50.580;11.392;2024-03-22T01:06:55;9.98;;;4.72;;
32152;SDS011;18656;50.580;11.392;2024-03-22T01:09:21;7.70;;;5.53;;
32152;SDS011;18656;50.580;11.392;2024-03-22T01:11:48;5.72;;;4.78;;
32152;SDS011;18656;50.580;11.392;2024-03-22T01:14:14;8.85;;;4.72;;
32152;SDS011;18656;50.580;11.392;2024-03-22T01:16:41;8.88;;;4.95;;
32152;SDS011;18656;50.580;11.392;2024-03-22T01:19:07;10.63;;;4.68;;
32152;SDS011;18656;50.580;11.392;2024-03-22T01:21:34;9.00;;;5.60;;
32152;SDS011;18656;50.580;11.392;2024-03-22T01:24:01;4.88;;;4.40;;
32152;SDS011;18656;50.580;11.392;2024-03-22T01:26:27;6.88;;;5.32;;
32152;SDS011;18656;50.580;11.392;2024-03-22T01:28:53;6.95;;;4.68;;
32152;SDS011;18656;50.580;11.392;2024-03-22T01:31:20;8.88;;;4.82;;
32152;SDS011;18656;50.580;11.392;2024-03-22T01:33:46;8.43;;;5.43;;
32152;SDS011;18656;50.580;11.392;2024-03-22T01:36:12;7.57;;;4.95;;
32152;SDS011;18656;50.580;11.392;2024-03-22T01:38:38;9.40;;;4.55;;
32152;SDS011;18656;50.580;11.392;2024-03-22T01:41:05;8.25;;;5.45;;
32152;SDS011;18656;50.580;11.392;2024-03-22T01:43:31;7.20;;;5.25;;
32152;SDS011;18656;50.580;11.392;2024-03-22T01:45:57;6.95;;;4.57;;
32152;SDS011;18656;50.580;11.392;2024-03-22T01:48:23;8.43;;;5.38;;
32152;SDS011;18656;50.580;11.392;2024-03-22T01:50:50;5.85;;;4.05;;
32152;SDS011;18656;50.580;11.392;2024-03-22T01:53:16;7.28;;;4.30;;
32152;SDS011;18656;50.580;11.392;2024-03-22T01:55:43;9.05;;;4.88;;
32152;SDS011;18656;50.580;11.392;2024-03-22T01:58:09;8.63;;;4.63;;
32152;SDS011;18656;50.580;11.392;2024-03-22T02:00:37;7.97;;;4.75;;
32152;SDS011;18656;50.580;11.392;2024-03-22T02:03:04;7.68;;;4.72;;
32152;SDS011;18656;50.580;11.392;2024-03-22T02:05:30;7.32;;;4.75;;
32152;SDS011;18656;50.580;11.392;2024-03-22T02:07:56;5.55;;;4.65;;
32152;SDS011;18656;50.580;11.392;2024-03-22T02:10:22;6.60;;;4.72;;
32152;SDS011;18656;50.580;11.392;2024-03-22T02:12:49;7.32;;;5.07;;
32152;SDS011;18656;50.580;11.392;2024-03-22T02:15:15;6.50;;;4.80;;
32152;SDS011;18656;50.580;11.392;2024-03-22T02:17:41;10.93;;;5.30;;
32152;SDS011;18656;50.580;11.392;2024-03-22T02:20:08;10.00;;;5.88;;
32152;SDS011;18656;50.580;11.392;2024-03-22T02:22:35;6.22;;;5.63;;
32152;SDS011;18656;50.580;11.392;2024-03-22T02:25:01;10.35;;;5.20;;
32152;SDS011;18656;50.580;11.392;2024-03-22T02:27:28;8.27;;;5.60;;
32152;SDS011;18656;50.580;11.392;2024-03-22T02:29:54;7.72;;;5.57;;
32152;SDS011;18656;50.580;11.392;2024-03-22T02:32:20;10.75;;;5.88;;
32152;SDS011;18656;50.580;11.392;2024-03-22T02:34:46;7.88;;;4.90;;
32152;SDS011;18656;50.580;11.392;2024-03-22T02:37:13;7.75;;;5.35;;
32152;SDS011;18656;50.580;11.392;2024-03-22T02:39:39;9.80;;;5.93;;
32152;SDS011;18656;50.580;11.392;2024-03-22T02:42:06;7.70;;;5.72;;
32152;SDS011;18656;50.580;11.392;2024-03-22T02:44:32;8.07;;;5.88;;
32152;SDS011;18656;50.580;11.392;2024-03-22T02:46:58;6.07;;;5.28;;
32152;SDS011;18656;50.580;11.392;2024-03-22T02:49:25;9.55;;;5.72;;
32152;SDS011;18656;50.580;11.392;2024-03-22T02:51:51;8.85;;;5.63;;
32152;SDS011;18656;50.580;11.392;2024-03-22T02:54:18;7.72;;;6.20;;
32152;SDS011;18656;50.580;11.392;2024-03-22T02:56:44;9.77;;;6.63;;
32152;SDS011;18656;50.580;11.392;2024-03-22T02:59:10;8.95;;;6.00;;
32152;SDS011;18656;50.580;11.392;2024-03-22T03:01:36;10.63;;;5.90;;
32152;SDS011;18656;50.580;11.392;2024-03-22T03:04:03;8.15;;;5.38;;
32152;SDS011;18656;50.580;11.392;2024-03-22T03:06:29;9.85;;;5.07;;
32152;SDS011;18656;50.580;11.392;2024-03-22T03:08:55;8.35;;;5.07;;
32152;SDS011;18656;50.580;11.392;2024-03-22T03:11:21;7.38;;;5.28;;
32152;SDS011;18656;50.580;11.392;2024-03-22T03:13:48;10.30;;;6.00;;
32152;SDS011;18656;50.580;11.392;2024-03-22T03:16:14;8.07;;;5.70;;
32152;SDS011;18656;50.580;11.392;2024-03-22T03:18:41;7.28;;;5.25;;
32152;SDS011;18656;50.580;11.392;2024-03-22T03:21:07;12.00;;;5.63;;
32152;SDS011;18656;50.580;11.392;2024-03-22T03:23:34;8.50;;;5.22;;
32152;SDS011;18656;50.580;11.392;2024-03-22T03:26:00;10.55;;;5.22;;
32152;SDS011;18656;50.580;11.392;2024-03-22T03:28:26;7.55;;;5.40;;
32152;SDS011;18656;50.580;11.392;2024-03-22T03:30:53;9.35;;;5.95;;
32152;SDS011;18656;50.580;11.392;2024-03-22T03:33:19;11.55;;;6.00;;
32152;SDS011;18656;50.580;11.392;2024-03-22T03:35:46;11.18;;;6.50;;
32152;SDS011;18656;50.580;11.392;2024-03-22T03:38:12;7.00;;;5.78;;
32152;SDS011;18656;50.580;11.392;2024-03-22T03:40:38;10.13;;;5.72;;
32152;SDS011;18656;50.580;11.392;2024-03-22T03:43:04;9.10;;;5.82;;
32152;SDS011;18656;50.580;11.392;2024-03-22T03:45:31;13.73;;;5.68;;
32152;SDS011;18656;50.580;11.392;2024-03-22T03:47:57;6.30;;;5.05;;
32152;SDS011;18656;50.580;11.392;2024-03-22T03:50:23;6.90;;;4.97;;
32152;SDS011;18656;50.580;11.392;2024-03-22T03:52:49;8.63;;;5.03;;
32152;SDS011;18656;50.580;11.392;2024-03-22T03:55:16;8.68;;;5.18;;
32152;SDS011;18656;50.580;11.392;2024-03-22T03:57:42;10.55;;;5.63;;
32152;SDS011;18656;50.580;11.392;2024-03-22T04:00:08;7.53;;;5.47;;
32152;SDS011;18656;50.580;11.392;2024-03-22T04:02:35;11.18;;;5.20;;
32152;SDS011;18656;50.580;11.392;2024-03-22T04:05:01;5.22;;;4.55;;
32152;SDS011;18656;50.580;11.392;2024-03-22T04:07:27;7.93;;;4.40;;
32152;SDS011;18656;50.580;11.392;2024-03-22T04:09:54;11.75;;;5.00;;
32152;SDS011;18656;50.580;11.392;2024-03-22T04:12:20;9.57;;;5.53;;
32152;SDS011;18656;50.580;11.392;2024-03-22T04:14:46;9.57;;;5.03;;
32152;SDS011;18656;50.580;11.392;2024-03-22T04:17:13;13.10;;;7.22;;
32152;SDS011;18656;50.580;11.392;2024-03-22T04:19:39;9.68;;;5.88;;
32152;SDS011;18656;50.580;11.392;2024-03-22T04:22:06;11.20;;;6.45;;
32152;SDS011;18656;50.580;11.392;2024-03-22T04:24:32;13.00;;;6.63;;
32152;SDS011;18656;50.580;11.392;2024-03-22T04:26:58;15.88;;;7.35;;
32152;SDS011;18656;50.580;11.392;2024-03-22T04:29:24;10.38;;;6.20;;
32152;SDS011;18656;50.580;11.392;2024-03-22T04:31:50;13.65;;;7.53;;
32152;SDS011;18656;50.580;11.392;2024-03-22T04:34:17;15.02;;;6.90;;
32152;SDS011;18656;50.580;11.392;2024-03-22T04:36:43;14.75;;;6.78;;
32152;SDS011;18656;50.580;11.392;2024-03-22T04:39:09;11.02;;;6.53;;
32152;SDS011;18656;50.580;11.392;2024-03-22T04:41:37;11.10;;;7.53;;
32152;SDS011;18656;50.580;11.392;2024-03-22T04:44:03;12.93;;;6.82;;
32152;SDS011;18656;50.580;11.392;2024-03-22T04:46:30;16.80;;;7.90;;
32152;SDS011;18656;50.580;11.392;2024-03-22T04:48:56;12.23;;;7.57;;
32152;SDS011;18656;50.580;11.392;2024-03-22T04:51:22;14.35;;;8.15;;
32152;SDS011;18656;50.580;11.392;2024-03-22T04:53:48;19.40;;;9.75;;
32152;SDS011;18656;50.580;11.392;2024-03-22T04:56:15;18.17;;;10.23;;
32152;SDS011;18656;50.580;11.392;2024-03-22T04:58:41;14.43;;;8.65;;
32152;SDS011;18656;50.580;11.392;2024-03-22T05:01:07;16.77;;;9.77;;
32152;SDS011;18656;50.580;11.392;2024-03-22T05:03:33;15.52;;;9.10;;
32152;SDS011;18656;50.580;11.392;2024-03-22T05:06:00;14.63;;;8.05;;
32152;SDS011;18656;50.580;11.392;2024-03-22T05:08:28;13.30;;;7.32;;
32152;SDS011;18656;50.580;11.392;2024-03-22T05:10:54;16.55;;;8.55;;
32152;SDS011;18656;50.580;11.392;2024-03-22T05:13:21;20.13;;;8.60;;
32152;SDS011;18656;50.580;11.392;2024-03-22T05:15:47;18.17;;;9.70;;
32152;SDS011;18656;50.580;11.392;2024-03-22T05:18:13;18.92;;;8.88;;
32152;SDS011;18656;50.580;11.392;2024-03-22T05:20:39;20.45;;;9.00;;
32152;SDS011;18656;50.580;11.392;2024-03-22T05:23:06;14.63;;;8.50;;
32152;SDS011;18656;50.580;11.392;2024-03-22T05:25:32;21.00;;;10.07;;
32152;SDS011;18656;50.580;11.392;2024-03-22T05:27:58;19.20;;;9.38;;
32152;SDS011;18656;50.580;11.392;2024-03-22T05:30:24;13.35;;;8.65;;
32152;SDS011;18656;50.580;11.392;2024-03-22T05:32:51;16.65;;;9.77;;
32152;SDS011;18656;50.580;11.392;2024-03-22T05:35:17;15.82;;;8.52;;
32152;SDS011;18656;50.580;11.392;2024-03-22T05:37:44;23.67;;;10.05;;
32152;SDS011;18656;50.580;11.392;2024-03-22T05:40:10;23.35;;;10.27;;
32152;SDS011;18656;50.580;11.392;2024-03-22T05:42:36;19.20;;;10.05;;
32152;SDS011;18656;50.580;11.392;2024-03-22T05:45:03;21.00;;;10.43;;
32152;SDS011;18656;50.580;11.392;2024-03-22T05:47:29;18.67;;;9.30;;
32152;SDS011;18656;50.580;11.392;2024-03-22T05:49:57;17.58;;;9.63;;
32152;SDS011;18656;50.580;11.392;2024-03-22T05:52:23;22.13;;;9.75;;
32152;SDS011;18656;50.580;11.392;2024-03-22T05:54:49;37.92;;;11.82;;
32152;SDS011;18656;50.580;11.392;2024-03-22T05:57:16;36.75;;;10.65;;
32152;SDS011;18656;50.580;11.392;2024-03-22T05:59:42;29.05;;;10.27;;
32152;SDS011;18656;50.580;11.392;2024-03-22T06:02:09;26.92;;;10.18;;
32152;SDS011;18656;50.580;11.392;2024-03-22T06:04:35;42.53;;;18.77;;
32152;SDS011;18656;50.580;11.392;2024-03-22T06:07:01;84.75;;;56.08;;
32152;SDS011;18656;50.580;11.392;2024-03-22T06:09:29;46.45;;;32.33;;
32152;SDS011;18656;50.580;11.392;2024-03-22T06:12:15;67.00;;;39.75;;
32152;SDS011;18656;50.580;11.392;2024-03-22T06:14:41;67.18;;;40.50;;
32152;SDS011;18656;50.580;11.392;2024-03-22T06:17:08;54.42;;;36.13;;
32152;SDS011;18656;50.580;11.392;2024-03-22T06:19:35;25.20;;;15.23;;
32152;SDS011;18656;50.580;11.392;2024-03-22T06:22:01;27.02;;;15.65;;
32152;SDS011;18656;50.580;11.392;2024-03-22T06:24:28;24.55;;;12.25;;
32152;SDS011;18656;50.580;11.392;2024-03-22T06:26:54;30.52;;;12.90;;
32152;SDS011;18656;50.580;11.392;2024-03-22T06:29:20;21.92;;;11.32;;
32152;SDS011;18656;50.580;11.392;2024-03-22T06:31:47;26.63;;;12.80;;
32152;SDS011;18656;50.580;11.392;2024-03-22T06:34:15;23.00;;;12.98;;
32152;SDS011;18656;50.580;11.392;2024-03-22T06:36:46;18.02;;;10.70;;
32152;SDS011;18656;50.580;11.392;2024-03-22T06:39:12;25.05;;;12.85;;
32152;SDS011;18656;50.580;11.392;2024-03-22T06:41:40;28.77;;;12.98;;
32152;SDS011;18656;50.580;11.392;2024-03-22T06:44:06;20.63;;;13.85;;
32152;SDS011;18656;50.580;11.392;2024-03-22T06:46:34;17.92;;;11.38;;
32152;SDS011;18656;50.580;11.392;2024-03-22T06:49:00;19.70;;;12.35;;
32152;SDS011;18656;50.580;11.392;2024-03-22T06:51:27;18.35;;;11.35;;
32152;SDS011;18656;50.580;11.392;2024-03-22T06:53:53;17.45;;;10.82;;
32152;SDS011;18656;50.580;11.392;2024-03-22T06:56:19;19.77;;;11.13;;
32152;SDS011;18656;50.580;11.392;2024-03-22T06:58:46;53.85;;;22.02;;
32152;SDS011;18656;50.580;11.392;2024-03-22T07:01:12;40.92;;;18.52;;
32152;SDS011;18656;50.580;11.392;2024-03-22T07:03:38;41.08;;;20.15;;
32152;SDS011;18656;50.580;11.392;2024-03-22T07:06:05;39.53;;;18.80;;
32152;SDS011;18656;50.580;11.392;2024-03-22T07:08:33;28.85;;;15.77;;
32152;SDS011;18656;50.580;11.392;2024-03-22T07:10:59;29.08;;;16.30;;
32152;SDS011;18656;50.580;11.392;2024-03-22T07:13:27;24.27;;;15.80;;
32152;SDS011;18656;50.580;11.392;2024-03-22T07:15:54;27.30;;;15.35;;
32152;SDS011;18656;50.580;11.392;2024-03-22T07:18:21;25.67;;;15.38;;
32152;SDS011;18656;50.580;11.392;2024-03-22T07:20:47;23.80;;;14.35;;
32152;SDS011;18656;50.580;11.392;2024-03-22T07:23:14;23.17;;;14.73;;
32152;SDS011;18656;50.580;11.392;2024-03-22T07:25:40;22.95;;;14.45;;
32152;SDS011;18656;50.580;11.392;2024-03-22T07:28:11;21.05;;;13.93;;
32152;SDS011;18656;50.580;11.392;2024-03-22T07:30:37;19.77;;;13.07;;
32152;SDS011;18656;50.580;11.392;2024-03-22T07:33:04;26.55;;;14.07;;
32152;SDS011;18656;50.580;11.392;2024-03-22T07:35:30;18.63;;;12.80;;
32152;SDS011;18656;50.580;11.392;2024-03-22T07:37:56;21.80;;;13.60;;
32152;SDS011;18656;50.580;11.392;2024-03-22T07:40:23;24.77;;;14.32;;
32152;SDS011;18656;50.580;11.392;2024-03-22T07:42:49;20.05;;;12.90;;
32152;SDS011;18656;50.580;11.392;2024-03-22T07:45:15;22.30;;;14.45;;
32152;SDS011;18656;50.580;11.392;2024-03-22T07:47:41;25.20;;;15.30;;
32152;SDS011;18656;50.580;11.392;2024-03-22T07:50:09;21.55;;;13.55;;
32152;SDS011;18656;50.580;11.392;2024-03-22T07:52:35;20.85;;;14.60;;
32152;SDS011;18656;50.580;11.392;2024-03-22T07:55:01;22.30;;;14.07;;
32152;SDS011;18656;50.580;11.392;2024-03-22T07:57:28;26.08;;;14.88;;
32152;SDS011;18656;50.580;11.392;2024-03-22T07:59:57;23.90;;;14.88;;
32152;SDS011;18656;50.580;11.392;2024-03-22T08:02:24;19.20;;;12.75;;
32152;SDS011;18656;50.580;11.392;2024-03-22T08:04:50;25.00;;;15.35;;
32152;SDS011;18656;50.580;11.392;2024-03-22T08:07:16;23.38;;;15.48;;
32152;SDS011;18656;50.580;11.392;2024-03-22T08:09:42;23.42;;;14.48;;
32152;SDS011;18656;50.580;11.392;2024-03-22T08:12:09;21.45;;;14.05;;
32152;SDS011;18656;50.580;11.392;2024-03-22T08:14:35;21.23;;;13.07;;
32152;SDS011;18656;50.580;11.392;2024-03-22T08:17:02;22.83;;;14.18;;
32152;SDS011;18656;50.580;11.392;2024-03-22T08:19:28;21.83;;;13.77;;
32152;SDS011;18656;50.580;11.392;2024-03-22T08:21:55;24.92;;;15.23;;
32152;SDS011;18656;50.580;11.392;2024-03-22T08:24:21;24.55;;;15.40;;
32152;SDS011;18656;50.580;11.392;2024-03-22T08:26:47;21.80;;;14.20;;
32152;SDS011;18656;50.580;11.392;2024-03-22T08:29:14;23.25;;;15.27;;
32152;SDS011;18656;50.580;11.392;2024-03-22T08:31:40;22.05;;;14.50;;
32152;SDS011;18656;50.580;11.392;2024-03-22T08:34:07;23.02;;;15.23;;
32152;SDS011;18656;50.580;11.392;2024-03-22T08:36:33;24.75;;;16.20;;
32152;SDS011;18656;50.580;11.392;2024-03-22T08:39:00;24.88;;;15.30;;
32152;SDS011;18656;50.580;11.392;2024-03-22T08:41:26;24.65;;;16.02;;
32152;SDS011;18656;50.580;11.392;2024-03-22T08:43:52;25.80;;;15.90;;
32152;SDS011;18656;50.580;11.392;2024-03-22T08:46:19;26.48;;;16.25;;
32152;SDS011;18656;50.580;11.392;2024-03-22T08:48:46;22.88;;;14.52;;
32152;SDS011;18656;50.580;11.392;2024-03-22T08:51:13;24.52;;;15.57;;
32152;SDS011;18656;50.580;11.392;2024-03-22T08:53:39;25.70;;;15.95;;
32152;SDS011;18656;50.580;11.392;2024-03-22T08:56:05;21.02;;;14.50;;
32152;SDS011;18656;50.580;11.392;2024-03-22T08:58:31;23.55;;;15.90;;
32152;SDS011;18656;50.580;11.392;2024-03-22T09:00:58;24.50;;;15.30;;
32152;SDS011;18656;50.580;11.392;2024-03-22T09:03:24;22.92;;;15.07;;
32152;SDS011;18656;50.580;11.392;2024-03-22T09:05:53;21.80;;;14.13;;
32152;SDS011;18656;50.580;11.392;2024-03-22T09:08:20;20.83;;;13.70;;
32152;SDS011;18656;50.580;11.392;2024-03-22T09:10:47;21.02;;;13.88;;
32152;SDS011;18656;50.580;11.392;2024-03-22T09:13:13;24.27;;;14.50;;
32152;SDS011;18656;50.580;11.392;2024-03-22T09:15:40;20.05;;;14.30;;
32152;SDS011;18656;50.580;11.392;2024-03-22T09:18:06;21.50;;;13.50;;
32152;SDS011;18656;50.580;11.392;2024-03-22T09:20:32;20.92;;;13.50;;
32152;SDS011;18656;50.580;11.392;2024-03-22T09:22:58;20.23;;;13.43;;
32152;SDS011;18656;50.580;11.392;2024-03-22T09:25:25;20.17;;;13.07;;
32152;SDS011;18656;50.580;11.392;2024-03-22T09:27:51;23.95;;;12.57;;
32152;SDS011;18656;50.580;11.392;2024-03-22T09:30:17;18.48;;;12.13;;
32152;SDS011;18656;50.580;11.392;2024-03-22T09:32:44;19.58;;;11.95;;
32152;SDS011;18656;50.580;11.392;2024-03-22T09:35:11;20.33;;;12.57;;
32152;SDS011;18656;50.580;11.392;2024-03-22T09:37:40;23.48;;;14.07;;
32152;SDS011;18656;50.580;11.392;2024-03-22T09:40:06;19.75;;;11.77;;
32152;SDS011;18656;50.580;11.392;2024-03-22T09:42:33;25.52;;;15.35;;
32152;SDS011;18656;50.580;11.392;2024-03-22T09:45:01;21.92;;;14.30;;
32152;SDS011;18656;50.580;11.392;2024-03-22T09:47:28;15.90;;;10.68;;
32152;SDS011;18656;50.580;11.392;2024-03-22T09:49:54;12.45;;;9.93;;
32152;SDS011;18656;50.580;11.392;2024-03-22T09:52:21;21.13;;;10.93;;
32152;SDS011;18656;50.580;11.392;2024-03-22T09:54:48;16.45;;;10.82;;
32152;SDS011;18656;50.580;11.392;2024-03-22T09:57:14;12.50;;;9.40;;
32152;SDS011;18656;50.580;11.392;2024-03-22T09:59:44;16.30;;;9.57;;
32152;SDS011;18656;50.580;11.392;2024-03-22T10:02:11;11.55;;;9.15;;
32152;SDS011;18656;50.580;11.392;2024-03-22T10:04:38;14.00;;;9.18;;
32152;SDS011;18656;50.580;11.392;2024-03-22T10:07:04;12.57;;;9.10;;
32152;SDS011;18656;50.580;11.392;2024-03-22T10:09:31;13.77;;;9.70;;
32152;SDS011;18656;50.580;11.392;2024-03-22T10:11:58;15.70;;;8.27;;
32152;SDS011;18656;50.580;11.392;2024-03-22T10:14:24;12.60;;;8.38;;
32152;SDS011;18656;50.580;11.392;2024-03-22T10:16:51;10.52;;;7.95;;
32152;SDS011;18656;50.580;11.392;2024-03-22T10:19:21;11.65;;;8.27;;
32152;SDS011;18656;50.580;11.392;2024-03-22T10:22:01;17.80;;;8.20;;
32152;SDS011;18656;50.580;11.392;2024-03-22T10:24:28;11.63;;;8.07;;
32152;SDS011;18656;50.580;11.392;2024-03-22T10:26:54;10.85;;;7.53;;
32152;SDS011;18656;50.580;11.392;2024-03-22T10:29:21;11.15;;;8.07;;
32152;SDS011;18656;50.580;11.392;2024-03-22T10:31:48;26.63;;;9.95;;
32152;SDS011;18656;50.580;11.392;2024-03-22T10:34:14;11.85;;;7.95;;
32152;SDS011;18656;50.580;11.392;2024-03-22T10:36:41;8.48;;;6.68;;
32152;SDS011;18656;50.580;11.392;2024-03-22T10:39:07;13.85;;;7.78;;
32152;SDS011;18656;50.580;11.392;2024-03-22T10:41:36;14.18;;;7.97;;
32152;SDS011;18656;50.580;11.392;2024-03-22T10:44:02;16.10;;;8.27;;
32152;SDS011;18656;50.580;11.392;2024-03-22T10:46:30;12.57;;;7.53;;
32152;SDS011;18656;50.580;11.392;2024-03-22T10:48:56;11.05;;;7.22;;
32152;SDS011;18656;50.580;11.392;2024-03-22T10:51:23;13.30;;;6.90;;
32152;SDS011;18656;50.580;11.392;2024-03-22T10:53:50;9.77;;;6.35;;
32152;SDS011;18656;50.580;11.392;2024-03-22T10:56:17;9.77;;;7.10;;
32152;SDS011;18656;50.580;11.392;2024-03-22T10:58:44;11.23;;;6.63;;
32152;SDS011;18656;50.580;11.392;2024-03-22T11:01:22;11.68;;;7.00;;
32152;SDS011;18656;50.580;11.392;2024-03-22T11:03:49;12.43;;;8.80;;
32152;SDS011;18656;50.580;11.392;2024-03-22T11:06:19;13.38;;;7.63;;
32152;SDS011;18656;50.580;11.392;2024-03-22T11:08:51;13.68;;;8.05;;
32152;SDS011;18656;50.580;11.392;2024-03-22T11:11:18;10.63;;;7.63;;
32152;SDS011;18656;50.580;11.392;2024-03-22T11:13:46;13.60;;;8.35;;
32152;SDS011;18656;50.580;11.392;2024-03-22T11:16:15;11.48;;;8.90;;
32152;SDS011;18656;50.580;11.392;2024-03-22T11:18:42;15.82;;;9.07;;
32152;SDS011;18656;50.580;11.392;2024-03-22T11:21:08;15.40;;;9.63;;
32152;SDS011;18656;50.580;11.392;2024-03-22T11:23:35;16.70;;;9.00;;
32152;SDS011;18656;50.580;11.392;2024-03-22T11:26:02;14.77;;;8.27;;
32152;SDS011;18656;50.580;11.392;2024-03-22T11:28:32;14.07;;;8.95;;
32152;SDS011;18656;50.580;11.392;2024-03-22T11:30:58;13.90;;;8.38;;
32152;SDS011;18656;50.580;11.392;2024-03-22T11:33:24;11.20;;;7.90;;
32152;SDS011;18656;50.580;11.392;2024-03-22T11:35:52;11.80;;;8.00;;
32152;SDS011;18656;50.580;11.392;2024-03-22T11:38:19;12.15;;;8.00;;
32152;SDS011;18656;50.580;11.392;2024-03-22T11:40:45;16.15;;;8.07;;
32152;SDS011;18656;50.580;11.392;2024-03-22T11:43:13;10.93;;;7.63;;
32152;SDS011;18656;50.580;11.392;2024-03-22T11:45:40;12.38;;;7.50;;
32152;SDS011;18656;50.580;11.392;2024-03-22T11:48:07;14.45;;;8.18;;
32152;SDS011;18656;50.580;11.392;2024-03-22T11:50:33;12.80;;;7.85;;
32152;SDS011;18656;50.580;11.392;2024-03-22T11:52:59;10.85;;;7.85;;
32152;SDS011;18656;50.580;11.392;2024-03-22T11:55:26;10.80;;;7.90;;
32152;SDS011;18656;50.580;11.392;2024-03-22T11:57:53;13.23;;;7.90;;
32152;SDS011;18656;50.580;11.392;2024-03-22T12:00:19;12.75;;;7.90;;
32152;SDS011;18656;50.580;11.392;2024-03-22T12:02:47;9.10;;;7.78;;
32152;SDS011;18656;50.580;11.392;2024-03-22T12:05:14;18.48;;;8.93;;
32152;SDS011;18656;50.580;11.392;2024-03-22T12:07:40;15.02;;;7.68;;
32152;SDS011;18656;50.580;11.392;2024-03-22T12:10:06;10.13;;;7.80;;
32152;SDS011;18656;50.580;11.392;2024-03-22T12:12:33;10.63;;;7.70;;
32152;SDS011;18656;50.580;11.392;2024-03-22T12:14:59;11.90;;;7.40;;
32152;SDS011;18656;50.580;11.392;2024-03-22T12:17:25;10.88;;;7.53;;
32152;SDS011;18656;50.580;11.392;2024-03-22T12:19:53;17.75;;;8.05;;
32152;SDS011;18656;50.580;11.392;2024-03-22T12:22:19;29.23;;;9.40;;
32152;SDS011;18656;50.580;11.392;2024-03-22T12:24:45;13.05;;;8.43;;
32152;SDS011;18656;50.580;11.392;2024-03-22T12:27:12;15.20;;;8.07;;
32152;SDS011;18656;50.580;11.392;2024-03-22T12:29:38;11.80;;;7.85;;
32152;SDS011;18656;50.580;11.392;2024-03-22T12:32:04;11.75;;;8.18;;
32152;SDS011;18656;50.580;11.392;2024-03-22T12:34:32;26.77;;;9.27;;
32152;SDS011;18656;50.580;11.392;2024-03-22T12:36:59;14.23;;;7.47;;
32152;SDS011;18656;50.580;11.392;2024-03-22T12:39:25;11.30;;;8.27;;
32152;SDS011;18656;50.580;11.392;2024-03-22T12:41:52;9.68;;;8.05;;
32152;SDS011;18656;50.580;11.392;2024-03-22T12:44:19;12.82;;;9.23;;
32152;SDS011;18656;50.580;11.392;2024-03-22T12:46:45;17.45;;;8.80;;
32152;SDS011;18656;50.580;11.392;2024-03-22T12:49:11;13.25;;;8.00;;
32152;SDS011;18656;50.580;11.392;2024-03-22T12:51:37;12.15;;;8.98;;
32152;SDS011;18656;50.580;11.392;2024-03-22T12:54:04;14.05;;;8.95;;
32152;SDS011;18656;50.580;11.392;2024-03-22T12:56:31;11.55;;;8.18;;
32152;SDS011;18656;50.580;11.392;2024-03-22T12:58:58;12.85;;;8.00;;
32152;SDS011;18656;50.580;11.392;2024-03-22T13:01:24;11.48;;;8.05;;
32152;SDS011;18656;50.580;11.392;2024-03-22T13:03:51;18.77;;;7.90;;
32152;SDS011;18656;50.580;11.392;2024-03-22T13:06:17;12.80;;;7.97;;
32152;SDS011;18656;50.580;11.392;2024-03-22T13:08:43;14.82;;;8.00;;
32152;SDS011;18656;50.580;11.392;2024-03-22T13:11:09;14.05;;;7.78;;
32152;SDS011;18656;50.580;11.392;2024-03-22T13:13:36;11.93;;;8.50;;
32152;SDS011;18656;50.580;11.392;2024-03-22T13:16:02;17.55;;;8.60;;
32152;SDS011;18656;50.580;11.392;2024-03-22T13:18:29;24.13;;;8.82;;
32152;SDS011;18656;50.580;11.392;2024-03-22T13:20:55;13.35;;;8.43;;
32152;SDS011;18656;50.580;11.392;2024-03-22T13:23:21;12.25;;;7.97;;
32152;SDS011;18656;50.580;11.392;2024-03-22T13:25:47;12.88;;;8.23;;
32152;SDS011;18656;50.580;11.392;2024-03-22T13:28:14;10.77;;;8.13;;
32152;SDS011;18656;50.580;11.392;2024-03-22T13:30:45;13.82;;;8.43;;
32152;SDS011;18656;50.580;11.392;2024-03-22T13:33:11;13.55;;;8.27;;
32152;SDS011;18656;50.580;11.392;2024-03-22T13:35:37;12.45;;;8.98;;
32152;SDS011;18656;50.580;11.392;2024-03-22T13:38:06;10.95;;;8.00;;
32152;SDS011;18656;50.580;11.392;2024-03-22T13:40:38;12.57;;;8.30;;
32152;SDS011;18656;50.580;11.392;2024-03-22T13:43:05;10.55;;;8.70;;
32152;SDS011;18656;50.580;11.392;2024-03-22T13:45:32;15.27;;;9.25;;
32152;SDS011;18656;50.580;11.392;2024-03-22T13:47:58;12.30;;;8.10;;
32152;SDS011;18656;50.580;11.392;2024-03-22T13:50:25;12.25;;;7.22;;
32152;SDS011;18656;50.580;11.392;2024-03-22T13:52:51;10.60;;;7.57;;
32152;SDS011;18656;50.580;11.392;2024-03-22T13:55:17;11.13;;;6.82;;
32152;SDS011;18656;50.580;11.392;2024-03-22T13:57:45;9.55;;;7.63;;
32152;SDS011;18656;50.580;11.392;2024-03-22T14:00:11;17.27;;;7.60;;
32152;SDS011;18656;50.580;11.392;2024-03-22T14:02:39;9.25;;;6.75;;
32152;SDS011;18656;50.580;11.392;2024-03-22T14:05:06;9.93;;;6.55;;
32152;SDS011;18656;50.580;11.392;2024-03-22T14:07:33;8.80;;;7.43;;
32152;SDS011;18656;50.580;11.392;2024-03-22T14:10:00;11.75;;;8.45;;
32152;SDS011;18656;50.580;11.392;2024-03-22T14:12:28;12.25;;;7.30;;
32152;SDS011;18656;50.580;11.392;2024-03-22T14:14:54;10.75;;;7.43;;
32152;SDS011;18656;50.580;11.392;2024-03-22T14:17:20;9.70;;;7.30;;